createdAt,value
2023-01-20T00:00:49.969Z,0.20
2023-01-20T00:06:23.310Z,0.30
2023-01-20T00:12:10.165Z,0.30
2023-01-20T00:17:54.266Z,0.20
2023-01-20T00:23:33.284Z,0.20
2023-01-20T00:29:05.420Z,0.30
2023-01-20T00:34:28.557Z,0.10
2023-01-20T00:39:49.980Z,0.20
2023-01-20T00:45:11.857Z,0.10
2023-01-20T00:50:33.416Z,0.20
2023-01-20T00:56:21.466Z,0.20
2023-01-20T01:02:04.263Z,0.10
2023-01-20T01:07:29.104Z,0.10
2023-01-20T01:12:58.896Z,0.20
2023-01-20T01:18:39.345Z,0.30
2023-01-20T01:24:06.441Z,0.20
2023-01-20T01:29:28.594Z,0.20
2023-01-20T01:34:50.037Z,0.20
2023-01-20T01:40:12.111Z,0.30
2023-01-20T01:45:33.850Z,0.20
2023-01-20T01:51:20.323Z,0.20
2023-01-20T01:57:06.593Z,0.20
2023-01-20T02:02:59.780Z,0.10
2023-01-20T02:08:39.660Z,0.10
2023-01-20T02:14:04.443Z,0.20
2023-01-20T02:19:48.515Z,0.30
2023-01-20T02:25:28.276Z,0.30
2023-01-20T02:31:30.408Z,0.30
2023-01-20T02:37:19.941Z,0.30
2023-01-20T02:43:08.224Z,0.30
2023-01-20T02:48:54.634Z,0.40
2023-01-20T02:54:20.780Z,0.50
2023-01-20T02:59:47.995Z,0.30
2023-01-20T03:05:46.914Z,0.30
2023-01-20T03:11:25.297Z,0.20
2023-01-20T03:17:08.475Z,0.30
2023-01-20T03:22:38.997Z,0.30
2023-01-20T03:28:17.775Z,0.40
2023-01-20T03:33:58.208Z,0.30
2023-01-20T03:39:22.178Z,0.30
2023-01-20T03:45:08.189Z,0.30
2023-01-20T03:50:57.362Z,0.30
2023-01-20T03:57:05.884Z,0.30
2023-01-20T04:02:50.253Z,0.40
2023-01-20T04:08:14.764Z,0.40
2023-01-20T04:13:42.095Z,0.40
2023-01-20T04:19:11.131Z,0.30
2023-01-20T04:24:52.138Z,0.30
2023-01-20T04:30:14.789Z,0.20
2023-01-20T04:35:36.405Z,0.30
2023-01-20T04:41:27.700Z,0.00
2023-01-20T04:47:21.720Z,0.20
2023-01-20T04:53:00.544Z,0.10
2023-01-20T04:58:38.372Z,0.10
2023-01-20T05:04:23.118Z,0.20
2023-01-20T05:10:09.065Z,0.20
2023-01-20T05:15:36.877Z,0.20
2023-01-20T05:21:34.175Z,0.30
2023-01-20T05:27:18.125Z,0.30
2023-01-20T05:33:06.390Z,0.30
2023-01-20T05:38:44.218Z,0.30
2023-01-20T05:44:12.773Z,0.30
2023-01-20T05:49:35.620Z,0.40
2023-01-20T05:54:57.058Z,0.20
2023-01-20T06:00:19.058Z,0.20
2023-01-20T06:06:02.262Z,0.30
2023-01-20T06:11:46.261Z,0.30
2023-01-20T06:17:44.275Z,0.30
2023-01-20T06:23:24.761Z,0.30
2023-01-20T06:28:54.529Z,0.10
2023-01-20T06:34:16.315Z,0.10
2023-01-20T06:39:37.892Z,0.10
2023-01-20T06:44:59.485Z,-0.20
2023-01-20T06:50:22.688Z,0.10
2023-01-20T06:55:44.186Z,0.00
2023-01-20T07:01:19.027Z,0.00
2023-01-20T07:06:52.162Z,0.10
2023-01-20T07:12:33.881Z,0.00
2023-01-20T07:18:06.102Z,0.00
2023-01-20T07:23:33.665Z,-0.10
2023-01-20T07:29:01.854Z,-0.10
2023-01-20T07:34:23.931Z,0.10
2023-01-20T07:39:45.479Z,0.00
2023-01-20T07:45:07.680Z,0.10
2023-01-20T07:50:29.448Z,0.20
2023-01-20T08:02:01.105Z,0.20
2023-01-20T08:07:43.055Z,0.10
2023-01-20T08:13:05.656Z,0.20
2023-01-20T08:18:27.619Z,0.40
2023-01-20T08:23:54.875Z,0.50
2023-01-20T08:29:17.125Z,0.20
2023-01-20T08:35:04.688Z,0.40
2023-01-20T08:40:30.383Z,0.50
2023-01-20T08:46:24.286Z,0.50
2023-01-20T08:52:12.203Z,0.40
2023-01-20T08:57:53.737Z,0.60
2023-01-20T09:03:35.560Z,0.50
2023-01-20T09:08:57.871Z,0.60
2023-01-20T09:14:24.857Z,0.40
2023-01-20T09:19:46.117Z,0.60
2023-01-20T09:25:09.067Z,0.60
2023-01-20T09:30:30.711Z,0.60
2023-01-20T09:36:17.836Z,0.60
2023-01-20T09:42:24.127Z,0.60
2023-01-20T09:48:40.096Z,0.50
2023-01-20T09:54:28.855Z,0.60
2023-01-20T10:00:01.578Z,0.60
2023-01-20T10:05:49.664Z,0.70
2023-01-20T10:11:27.357Z,0.50
2023-01-20T10:17:23.493Z,0.50
2023-01-20T10:23:19.947Z,0.60
2023-01-20T10:29:06.559Z,0.60
2023-01-20T10:34:45.279Z,0.70
2023-01-20T10:40:15.556Z,0.50
2023-01-20T10:46:25.001Z,0.70
2023-01-20T10:52:23.054Z,0.80
2023-01-20T10:58:04.583Z,0.80
2023-01-20T11:03:41.145Z,0.90
2023-01-20T11:09:41.188Z,1.00
2023-01-20T11:16:10.751Z,1.20
2023-01-20T11:21:45.943Z,0.80
2023-01-20T11:27:35.812Z,0.90
2023-01-20T11:33:31.478Z,0.80
2023-01-20T11:39:02.867Z,1.00
2023-01-20T11:44:25.088Z,1.10
2023-01-20T11:49:46.889Z,1.20
2023-01-20T11:55:14.772Z,1.40
2023-01-20T12:00:44.055Z,1.40
2023-01-20T12:06:29.735Z,1.50
2023-01-20T12:12:26.597Z,1.50
2023-01-20T12:18:34.682Z,1.60
2023-01-20T12:24:06.941Z,1.60
2023-01-20T12:29:50.714Z,1.70
2023-01-20T12:35:15.522Z,1.70
2023-01-20T12:40:42.159Z,1.70
2023-01-20T12:47:10.078Z,1.80
2023-01-20T12:52:58.937Z,1.80
2023-01-20T12:58:40.126Z,1.70
2023-01-20T13:04:38.420Z,1.80
2023-01-20T13:10:19.044Z,1.70
2023-01-20T13:16:18.175Z,1.70
2023-01-20T13:22:20.157Z,1.60
2023-01-20T13:27:59.208Z,1.60
2023-01-20T13:33:56.251Z,1.70
2023-01-20T13:39:40.751Z,1.60
2023-01-20T13:45:14.560Z,1.60
2023-01-20T13:50:37.641Z,1.30
2023-01-20T13:56:35.678Z,1.30
2023-01-20T14:02:34.769Z,1.10
2023-01-20T14:08:27.914Z,1.10
2023-01-20T14:14:00.022Z,1.20
2023-01-20T14:19:37.295Z,1.10
2023-01-20T14:25:00.789Z,1.20
2023-01-20T14:30:30.312Z,1.20
2023-01-20T14:36:13.768Z,1.20
2023-01-20T14:42:10.882Z,1.20
2023-01-20T14:47:40.800Z,1.10
2023-01-20T14:53:14.172Z,1.10
2023-01-20T14:58:54.606Z,1.10
2023-01-20T15:04:29.822Z,0.90
2023-01-20T15:10:08.455Z,1.00
2023-01-20T15:15:32.457Z,0.90
2023-01-20T15:21:15.448Z,0.90
2023-01-20T15:27:03.387Z,0.90
2023-01-20T15:32:56.267Z,0.90
2023-01-20T15:38:38.929Z,0.80
2023-01-20T15:44:06.791Z,0.80
2023-01-20T15:49:28.767Z,0.80
2023-01-20T15:54:50.337Z,0.70
2023-01-20T16:00:23.004Z,0.60
2023-01-20T16:06:04.967Z,0.60
2023-01-20T16:11:54.277Z,0.50
2023-01-20T16:17:43.007Z,0.50
2023-01-20T16:23:15.022Z,0.50
2023-01-20T16:29:02.720Z,0.40
2023-01-20T16:34:25.253Z,0.40
2023-01-20T16:39:47.240Z,0.40
2023-01-20T16:45:28.417Z,0.40
2023-01-20T16:57:14.206Z,0.20
2023-01-20T17:09:05.837Z,0.20
2023-01-20T17:14:26.985Z,0.10
2023-01-20T17:19:48.391Z,0.10
2023-01-20T17:25:10.694Z,0.00
2023-01-20T17:30:32.331Z,0.00
2023-01-20T17:36:27.087Z,-0.10
2023-01-20T17:42:12.265Z,-0.10
2023-01-20T17:47:57.546Z,-0.20
2023-01-20T17:53:34.293Z,-0.20
2023-01-20T17:59:02.227Z,-0.20
2023-01-20T18:04:46.175Z,-0.30
2023-01-20T18:10:11.291Z,-0.30
2023-01-20T18:15:32.607Z,-0.30
2023-01-20T18:21:25.208Z,-0.30
2023-01-20T18:27:10.667Z,-0.30
2023-01-20T18:32:42.633Z,-0.40
2023-01-20T18:38:17.754Z,-0.40
2023-01-20T18:43:55.053Z,-0.40
2023-01-20T18:49:22.826Z,-0.40
2023-01-20T18:54:46.395Z,-0.40
2023-01-20T19:00:08.452Z,-0.40
2023-01-20T19:05:41.883Z,-0.40
2023-01-20T19:11:35.973Z,-0.40
2023-01-20T19:17:04.733Z,-0.30
2023-01-20T19:22:50.540Z,-0.30
2023-01-20T19:28:25.260Z,-0.30
2023-01-20T19:33:53.544Z,-0.20
2023-01-20T19:39:19.083Z,-0.20
2023-01-20T19:44:40.961Z,-0.20
2023-01-20T19:50:02.974Z,-0.20
2023-01-20T19:55:24.605Z,-0.20
2023-01-20T20:00:46.177Z,-0.20
2023-01-20T20:06:34.654Z,-0.20
2023-01-20T20:18:11.984Z,-0.20
2023-01-20T20:23:43.495Z,-0.20
2023-01-20T20:29:14.675Z,-0.20
2023-01-20T20:34:36.697Z,-0.20
2023-01-20T20:39:58.325Z,-0.10
2023-01-20T20:45:20.558Z,-0.10
2023-01-20T20:50:42.103Z,-0.10
2023-01-20T20:56:27.150Z,-0.20
2023-01-20T21:02:11.551Z,-0.30
2023-01-20T21:07:37.893Z,-0.20
2023-01-20T21:13:02.155Z,-0.20
2023-01-20T21:18:39.912Z,-0.10
2023-01-20T21:24:07.960Z,-0.10
2023-01-20T21:29:30.015Z,-0.10
2023-01-20T21:34:51.539Z,0.00
2023-01-20T21:40:13.547Z,0.00
2023-01-20T21:45:34.689Z,0.00
2023-01-20T21:51:46.612Z,0.00
2023-01-20T21:57:28.551Z,0.00
2023-01-20T22:03:17.036Z,0.00
2023-01-20T22:08:39.523Z,0.00
2023-01-20T22:14:07.950Z,0.00
2023-01-20T22:19:30.335Z,0.00
2023-01-20T22:24:53.303Z,-0.10
2023-01-20T22:30:14.973Z,-0.10
2023-01-20T22:35:37.113Z,-0.10
2023-01-20T22:41:30.709Z,-0.10
2023-01-20T22:46:52.718Z,-0.20
2023-01-20T22:52:35.521Z,-0.20
2023-01-20T22:58:15.577Z,-0.20
2023-01-20T23:04:09.207Z,-0.30
2023-01-20T23:09:54.099Z,-0.40
2023-01-20T23:15:33.077Z,-0.50
2023-01-20T23:21:25.858Z,-0.50
2023-01-20T23:33:00.751Z,-0.60
2023-01-20T23:38:25.904Z,-0.80
2023-01-20T23:43:53.410Z,-0.80
2023-01-20T23:49:19.683Z,-0.80
2023-01-20T23:54:42.516Z,-0.80
